createdAt,value
2023-03-02T00:01:08.340Z,-2.88
2023-03-02T00:03:38.901Z,-2.88
2023-03-02T00:06:10.029Z,-2.92
2023-03-02T00:08:39.208Z,-2.93
2023-03-02T00:11:06.890Z,-2.95
2023-03-02T00:13:36.562Z,-2.97
2023-03-02T00:16:04.398Z,-2.96
2023-03-02T00:18:32.299Z,-2.98
2023-03-02T00:21:00.113Z,-2.99
2023-03-02T00:23:29.068Z,-3.02
2023-03-02T00:25:56.695Z,-3.04
2023-03-02T00:28:24.394Z,-3.04
2023-03-02T00:30:52.237Z,-3.05
2023-03-02T00:33:19.866Z,-3.07
2023-03-02T00:35:47.999Z,-3.10
2023-03-02T00:38:15.979Z,-3.12
2023-03-02T00:40:50.030Z,-3.13
2023-03-02T00:43:18.674Z,-3.15
2023-03-02T00:45:46.434Z,-3.17
2023-03-02T00:48:14.039Z,-3.20
2023-03-02T00:50:41.929Z,-3.21
2023-03-02T00:53:10.033Z,-3.24
2023-03-02T00:55:38.427Z,-3.24
2023-03-02T00:58:08.041Z,-3.25
2023-03-02T01:00:35.789Z,-3.28
2023-03-02T01:03:06.684Z,-3.30
2023-03-02T01:05:37.449Z,-3.31
2023-03-02T01:08:05.747Z,-3.34
2023-03-02T01:10:33.518Z,-3.34
2023-03-02T01:13:01.180Z,-3.37
2023-03-02T01:15:30.740Z,-3.39
2023-03-02T01:18:00.111Z,-3.42
2023-03-02T01:20:28.199Z,-3.44
2023-03-02T01:22:56.512Z,-3.46
2023-03-02T01:25:24.290Z,-3.48
2023-03-02T01:27:51.939Z,-3.48
2023-03-02T01:30:19.832Z,-3.50
2023-03-02T01:32:48.834Z,-3.50
2023-03-02T01:35:16.615Z,-3.52
2023-03-02T01:37:44.231Z,-3.53
2023-03-02T01:40:14.690Z,-3.57
2023-03-02T01:42:52.913Z,-3.56
2023-03-02T01:45:51.731Z,-3.59
2023-03-02T01:48:30.731Z,-3.60
2023-03-02T01:50:59.706Z,-3.64
2023-03-02T01:53:30.536Z,-3.65
2023-03-02T01:56:01.740Z,-3.63
2023-03-02T01:58:35.458Z,-3.66
2023-03-02T02:01:03.973Z,-3.68
2023-03-02T02:03:33.335Z,-3.70
2023-03-02T02:06:10.808Z,-3.70
2023-03-02T02:08:40.788Z,-3.72
2023-03-02T02:11:08.552Z,-3.74
2023-03-02T02:13:36.264Z,-3.74
2023-03-02T02:16:04.740Z,-3.75
2023-03-02T02:18:34.824Z,-3.76
2023-03-02T02:21:03.127Z,-3.78
2023-03-02T02:23:38.039Z,-3.78
2023-03-02T02:26:11.256Z,-3.79
2023-03-02T02:28:43.387Z,-3.81
2023-03-02T02:31:17.109Z,-3.82
2023-03-02T02:33:50.463Z,-3.84
2023-03-02T02:36:22.015Z,-3.85
2023-03-02T02:38:54.279Z,-3.86
2023-03-02T02:41:28.383Z,-3.87
2023-03-02T02:43:57.233Z,-3.89
2023-03-02T02:46:26.553Z,-3.91
2023-03-02T02:48:54.821Z,-3.92
2023-03-02T02:51:26.452Z,-3.93
2023-03-02T02:53:58.726Z,-3.97
2023-03-02T02:56:34.023Z,-3.98
2023-03-02T02:59:07.354Z,-4.00
2023-03-02T03:01:35.513Z,-4.02
2023-03-02T03:04:06.334Z,-4.03
2023-03-02T03:06:42.158Z,-4.06
2023-03-02T03:09:11.742Z,-4.07
2023-03-02T03:11:47.883Z,-4.09
2023-03-02T03:14:18.203Z,-4.09
2023-03-02T03:16:50.962Z,-4.10
2023-03-02T03:19:25.062Z,-4.11
2023-03-02T03:21:55.874Z,-4.11
2023-03-02T03:24:26.666Z,-4.13
2023-03-02T03:26:56.944Z,-4.14
2023-03-02T03:29:27.016Z,-4.15
2023-03-02T03:32:00.558Z,-4.17
2023-03-02T03:34:30.235Z,-4.19
2023-03-02T03:37:01.752Z,-4.21
2023-03-02T03:39:32.304Z,-4.21
2023-03-02T03:42:01.516Z,-4.23
2023-03-02T03:44:29.971Z,-4.22
2023-03-02T03:46:57.819Z,-4.22
2023-03-02T03:49:25.670Z,-4.21
2023-03-02T03:51:53.625Z,-4.24
2023-03-02T03:54:21.422Z,-4.24
2023-03-02T03:56:51.017Z,-4.24
2023-03-02T03:59:22.550Z,-4.25
2023-03-02T04:02:03.027Z,-4.24
2023-03-02T04:04:37.036Z,-4.26
2023-03-02T04:07:09.737Z,-4.25
2023-03-02T04:09:39.189Z,-4.24
2023-03-02T04:12:11.515Z,-4.25
2023-03-02T04:14:48.749Z,-4.24
2023-03-02T04:17:16.815Z,-4.25
2023-03-02T04:19:47.117Z,-4.26
2023-03-02T04:22:16.285Z,-4.28
2023-03-02T04:24:44.008Z,-4.28
2023-03-02T04:27:12.355Z,-4.29
2023-03-02T04:29:40.341Z,-4.29
2023-03-02T04:32:10.730Z,-4.30
2023-03-02T04:34:39.894Z,-4.32
2023-03-02T04:37:07.689Z,-4.33
2023-03-02T04:39:35.326Z,-4.34
2023-03-02T04:42:03.118Z,-4.35
2023-03-02T04:44:30.822Z,-4.35
2023-03-02T04:46:58.681Z,-4.35
2023-03-02T04:49:27.755Z,-4.38
2023-03-02T04:51:55.440Z,-4.38
2023-03-02T04:54:25.590Z,-4.40
2023-03-02T04:56:53.723Z,-4.41
2023-03-02T04:59:24.020Z,-4.40
2023-03-02T05:01:51.660Z,-4.41
2023-03-02T05:04:20.015Z,-4.42
2023-03-02T05:06:49.070Z,-4.44
2023-03-02T05:09:16.721Z,-4.44
2023-03-02T05:11:44.382Z,-4.45
2023-03-02T05:14:14.092Z,-4.47
2023-03-02T05:16:43.017Z,-4.47
2023-03-02T05:19:13.468Z,-4.48
2023-03-02T05:21:41.497Z,-4.51
2023-03-02T05:24:10.983Z,-4.52
2023-03-02T05:26:39.027Z,-4.53
2023-03-02T05:29:07.027Z,-4.54
2023-03-02T05:31:37.617Z,-4.54
2023-03-02T05:34:07.390Z,-4.56
2023-03-02T05:36:36.443Z,-4.53
2023-03-02T05:39:05.122Z,-4.54
2023-03-02T05:41:34.281Z,-4.54
2023-03-02T05:44:01.996Z,-4.51
2023-03-02T05:46:29.829Z,-4.49
2023-03-02T05:48:57.635Z,-4.47
2023-03-02T05:51:25.358Z,-4.45
2023-03-02T05:53:52.997Z,-4.43
2023-03-02T05:56:22.353Z,-4.40
2023-03-02T05:58:51.344Z,-4.35
2023-03-02T06:01:19.014Z,-4.31
2023-03-02T06:03:47.894Z,-4.27
2023-03-02T06:06:15.551Z,-4.21
2023-03-02T06:08:43.802Z,-4.18
2023-03-02T06:11:12.497Z,-4.13
2023-03-02T06:13:40.594Z,-4.07
2023-03-02T06:16:10.432Z,-4.02
2023-03-02T06:18:41.475Z,-3.98
2023-03-02T06:21:10.713Z,-3.93
2023-03-02T06:23:38.746Z,-3.90
2023-03-02T06:26:09.915Z,-3.86
2023-03-02T06:28:51.476Z,-3.81
2023-03-02T06:31:23.300Z,-3.76
2023-03-02T06:33:51.081Z,-3.69
2023-03-02T06:36:18.802Z,-3.65
2023-03-02T06:38:46.570Z,-3.60
2023-03-02T06:41:14.280Z,-3.55
2023-03-02T06:43:42.094Z,-3.47
2023-03-02T06:46:10.056Z,-3.42
2023-03-02T06:48:39.275Z,-3.35
2023-03-02T06:51:07.692Z,-3.29
2023-03-02T06:53:35.342Z,-3.24
2023-03-02T06:56:02.960Z,-3.20
2023-03-02T06:58:30.731Z,-3.15
2023-03-02T07:00:58.509Z,-3.09
2023-03-02T07:03:26.348Z,-3.05
2023-03-02T07:05:56.563Z,-2.99
2023-03-02T07:08:24.857Z,-2.93
2023-03-02T07:10:52.683Z,-2.88
2023-03-02T07:13:21.486Z,-2.82
2023-03-02T07:15:49.730Z,-2.74
2023-03-02T07:18:17.639Z,-2.69
2023-03-02T07:20:45.385Z,-2.61
2023-03-02T07:23:14.663Z,-2.57
2023-03-02T07:25:43.447Z,-2.52
2023-03-02T07:28:11.804Z,-2.47
2023-03-02T07:30:39.518Z,-2.43
2023-03-02T07:33:07.234Z,-2.37
2023-03-02T07:35:36.066Z,-2.31
2023-03-02T07:38:03.757Z,-2.24
2023-03-02T07:40:33.910Z,-2.18
2023-03-02T07:43:01.615Z,-2.11
2023-03-02T07:45:29.215Z,-2.06
2023-03-02T07:47:57.718Z,-2.00
2023-03-02T07:50:25.569Z,-1.93
2023-03-02T07:52:53.292Z,-1.86
2023-03-02T07:55:21.023Z,-1.80
2023-03-02T07:57:50.076Z,-1.76
2023-03-02T08:00:18.796Z,-1.70
2023-03-02T08:02:46.522Z,-1.65
2023-03-02T08:05:14.456Z,-1.59
2023-03-02T08:07:42.698Z,-1.52
2023-03-02T08:10:12.188Z,-1.45
2023-03-02T08:12:39.825Z,-1.38
2023-03-02T08:15:10.380Z,-1.30
2023-03-02T08:17:38.025Z,-1.26
2023-03-02T08:20:06.553Z,-1.20
2023-03-02T08:22:34.202Z,-1.14
2023-03-02T08:25:01.832Z,-1.10
2023-03-02T08:27:29.538Z,-1.06
2023-03-02T08:29:57.715Z,-1.01
2023-03-02T08:32:26.703Z,-0.96
2023-03-02T08:34:54.553Z,-0.89
2023-03-02T08:37:22.255Z,-0.82
2023-03-02T08:39:50.503Z,-0.77
2023-03-02T08:42:22.792Z,-0.74
2023-03-02T08:44:50.435Z,-0.73
2023-03-02T08:47:18.074Z,-0.70
2023-03-02T08:49:48.283Z,-0.65
2023-03-02T08:52:16.302Z,-0.61
2023-03-02T08:54:43.930Z,-0.51
2023-03-02T08:57:12.470Z,-0.47
2023-03-02T08:59:40.347Z,-0.42
2023-03-02T09:02:08.233Z,-0.35
2023-03-02T09:04:36.069Z,-0.32
2023-03-02T09:07:05.116Z,-0.27
2023-03-02T09:09:32.720Z,-0.23
2023-03-02T09:12:00.302Z,-0.19
2023-03-02T09:14:28.336Z,-0.14
2023-03-02T09:16:56.016Z,-0.09
2023-03-02T09:19:23.782Z,-0.05
2023-03-02T09:21:51.448Z,0.03
2023-03-02T09:24:20.448Z,0.09
2023-03-02T09:26:48.091Z,0.13
2023-03-02T09:29:15.741Z,0.17
2023-03-02T09:31:43.699Z,0.22
2023-03-02T09:34:11.405Z,0.29
2023-03-02T09:36:39.071Z,0.33
2023-03-02T09:39:12.281Z,0.37
2023-03-02T09:42:09.430Z,0.42
2023-03-02T09:44:50.043Z,0.49
2023-03-02T09:47:34.815Z,0.60
2023-03-02T09:50:12.512Z,0.71
2023-03-02T09:52:47.236Z,0.78
2023-03-02T09:55:17.359Z,0.82
2023-03-02T09:57:46.922Z,0.89
2023-03-02T10:00:19.909Z,0.97
2023-03-02T10:02:50.111Z,1.04
2023-03-02T10:05:21.291Z,1.08
2023-03-02T10:07:49.376Z,1.14
2023-03-02T10:10:26.621Z,1.22
2023-03-02T10:13:17.847Z,1.27
2023-03-02T10:15:56.854Z,1.37
2023-03-02T10:18:29.323Z,1.44
2023-03-02T10:21:01.652Z,1.51
2023-03-02T10:23:42.283Z,1.56
2023-03-02T10:26:23.508Z,1.60
2023-03-02T10:28:58.997Z,1.64
2023-03-02T10:31:29.727Z,1.70
2023-03-02T10:33:58.005Z,1.78
2023-03-02T10:36:27.773Z,1.85
2023-03-02T10:38:57.559Z,1.89
2023-03-02T10:41:30.212Z,1.93
2023-03-02T10:44:04.522Z,1.99
2023-03-02T10:46:42.093Z,2.04
2023-03-02T10:49:26.507Z,2.09
2023-03-02T10:51:59.778Z,2.12
2023-03-02T10:54:28.944Z,2.19
2023-03-02T10:56:59.689Z,2.23
2023-03-02T10:59:43.188Z,2.34
2023-03-02T11:02:18.184Z,2.42
2023-03-02T11:04:46.309Z,2.47
2023-03-02T11:07:17.784Z,2.50
2023-03-02T11:09:45.584Z,2.55
2023-03-02T11:12:16.794Z,2.61
2023-03-02T11:14:45.796Z,2.66
2023-03-02T11:17:30.907Z,2.72
2023-03-02T11:19:58.765Z,2.80
2023-03-02T11:22:37.846Z,2.83
2023-03-02T11:25:12.739Z,2.91
2023-03-02T11:27:42.397Z,2.97
2023-03-02T11:30:16.974Z,3.03
2023-03-02T11:32:52.434Z,3.07
2023-03-02T11:35:29.777Z,3.09
2023-03-02T11:38:03.613Z,3.18
2023-03-02T11:40:35.089Z,3.22
2023-03-02T11:43:05.566Z,3.31
2023-03-02T11:45:38.041Z,3.34
2023-03-02T11:48:09.890Z,3.40
2023-03-02T11:50:44.596Z,3.37
2023-03-02T11:53:17.131Z,3.40
2023-03-02T11:55:48.732Z,3.42
2023-03-02T11:58:19.386Z,3.39
2023-03-02T12:00:49.860Z,3.45
2023-03-02T12:03:22.874Z,3.49
2023-03-02T12:06:03.022Z,3.54
2023-03-02T12:08:38.791Z,3.62
2023-03-02T12:11:08.745Z,3.70
2023-03-02T12:13:38.704Z,3.68
2023-03-02T12:16:20.541Z,3.73
2023-03-02T12:18:49.943Z,3.82
2023-03-02T12:21:19.728Z,3.87
2023-03-02T12:24:04.035Z,3.91
2023-03-02T12:26:36.015Z,3.91
2023-03-02T12:29:08.537Z,3.92
2023-03-02T12:31:46.501Z,3.94
2023-03-02T12:34:34.954Z,4.00
2023-03-02T12:37:09.149Z,4.04
2023-03-02T12:40:18.162Z,4.11
2023-03-02T12:42:59.758Z,4.12
2023-03-02T12:45:42.320Z,4.18
2023-03-02T12:48:29.303Z,4.24
2023-03-02T12:51:01.806Z,4.33
2023-03-02T12:53:30.209Z,4.37
2023-03-02T12:55:58.513Z,4.40
2023-03-02T12:58:28.617Z,4.37
2023-03-02T13:00:59.135Z,4.37
2023-03-02T13:03:30.050Z,4.41
2023-03-02T13:06:05.317Z,4.44
2023-03-02T13:08:33.341Z,4.48
2023-03-02T13:11:03.036Z,4.52
2023-03-02T13:13:37.855Z,4.56
2023-03-02T13:16:08.240Z,4.58
2023-03-02T13:18:39.649Z,4.59
2023-03-02T13:21:07.821Z,4.59
2023-03-02T13:23:35.530Z,4.61
2023-03-02T13:26:05.769Z,4.60
2023-03-02T13:28:36.687Z,4.57
2023-03-02T13:31:07.059Z,4.50
2023-03-02T13:33:44.214Z,4.45
2023-03-02T13:36:19.436Z,4.47
2023-03-02T13:38:50.709Z,4.44
2023-03-02T13:41:23.826Z,4.41
2023-03-02T13:43:51.734Z,4.40
2023-03-02T13:46:28.699Z,4.43
2023-03-02T13:49:09.587Z,4.43
2023-03-02T13:51:41.396Z,4.46
2023-03-02T13:54:20.550Z,4.52
2023-03-02T13:56:48.589Z,4.54
2023-03-02T13:59:23.460Z,4.57
2023-03-02T14:01:54.821Z,4.52
2023-03-02T14:04:31.134Z,4.51
2023-03-02T14:06:59.227Z,4.52
2023-03-02T14:09:31.979Z,4.52
2023-03-02T14:12:02.387Z,4.53
2023-03-02T14:14:36.144Z,4.53
2023-03-02T14:17:14.360Z,4.50
2023-03-02T14:19:45.218Z,4.51
2023-03-02T14:22:20.066Z,4.52
2023-03-02T14:24:56.336Z,4.50
2023-03-02T14:27:34.052Z,4.54
2023-03-02T14:30:01.998Z,4.65
2023-03-02T14:32:31.448Z,4.71
2023-03-02T14:35:00.876Z,4.66
2023-03-02T14:37:30.293Z,4.63
2023-03-02T14:39:58.590Z,4.65
2023-03-02T14:42:26.978Z,4.71
2023-03-02T14:45:00.010Z,4.75
2023-03-02T14:47:32.622Z,4.75
2023-03-02T14:50:05.377Z,4.74
2023-03-02T14:52:38.811Z,4.73
2023-03-02T14:55:13.767Z,4.67
2023-03-02T14:57:43.895Z,4.68
2023-03-02T15:00:15.350Z,4.63
2023-03-02T15:02:43.378Z,4.56
2023-03-02T15:05:12.463Z,4.48
2023-03-02T15:07:40.902Z,4.42
2023-03-02T15:10:09.891Z,4.33
2023-03-02T15:12:37.872Z,4.23
2023-03-02T15:15:06.316Z,4.08
2023-03-02T15:17:34.012Z,3.98
2023-03-02T15:20:02.110Z,3.88
2023-03-02T15:22:31.289Z,3.75
2023-03-02T15:24:59.016Z,3.67
2023-03-02T15:27:26.846Z,3.57
2023-03-02T15:29:56.699Z,3.51
2023-03-02T15:32:24.862Z,3.45
2023-03-02T15:34:52.496Z,3.35
2023-03-02T15:37:20.131Z,3.26
2023-03-02T15:39:54.420Z,3.16
2023-03-02T15:42:22.142Z,3.10
2023-03-02T15:44:50.141Z,3.03
2023-03-02T15:47:18.105Z,3.02
2023-03-02T15:49:45.739Z,2.96
2023-03-02T15:52:13.744Z,2.92
2023-03-02T15:54:42.066Z,2.88
2023-03-02T15:57:11.666Z,2.83
2023-03-02T15:59:39.393Z,2.76
2023-03-02T16:02:07.016Z,2.72
2023-03-02T16:04:34.958Z,2.66
2023-03-02T16:07:02.599Z,2.57
2023-03-02T16:09:30.990Z,2.53
2023-03-02T16:11:58.751Z,2.47
2023-03-02T16:14:27.839Z,2.42
2023-03-02T16:16:55.538Z,2.38
2023-03-02T16:19:23.306Z,2.29
2023-03-02T16:21:50.929Z,2.25
2023-03-02T16:24:18.625Z,2.17
2023-03-02T16:26:46.308Z,2.10
2023-03-02T16:29:16.038Z,2.01
2023-03-02T16:31:46.995Z,1.89
2023-03-02T16:34:14.746Z,1.78
2023-03-02T16:36:42.851Z,1.68
2023-03-02T16:39:11.750Z,1.60
2023-03-02T16:41:42.927Z,1.54
2023-03-02T16:44:13.434Z,1.48
2023-03-02T16:46:43.342Z,1.37
2023-03-02T16:49:13.286Z,1.29
2023-03-02T16:51:43.041Z,1.22
2023-03-02T16:54:12.180Z,1.17
2023-03-02T16:56:41.769Z,1.10
2023-03-02T16:59:09.467Z,1.06
2023-03-02T17:01:37.101Z,1.03
2023-03-02T17:04:06.023Z,1.00
2023-03-02T17:06:35.778Z,0.97
2023-03-02T17:09:05.252Z,0.94
2023-03-02T17:11:33.175Z,0.88
2023-03-02T17:14:00.840Z,0.84
2023-03-02T17:16:28.444Z,0.82
2023-03-02T17:18:56.086Z,0.78
2023-03-02T17:21:25.013Z,0.76
2023-03-02T17:23:54.359Z,0.71
2023-03-02T17:26:21.981Z,0.67
2023-03-02T17:28:49.625Z,0.65
2023-03-02T17:31:17.497Z,0.62
2023-03-02T17:33:45.150Z,0.59
2023-03-02T17:36:15.355Z,0.58
2023-03-02T17:38:43.236Z,0.52
2023-03-02T17:41:12.690Z,0.49
2023-03-02T17:43:42.876Z,0.48
2023-03-02T17:46:20.510Z,0.44
2023-03-02T17:48:50.481Z,0.43
2023-03-02T17:51:19.192Z,0.40
2023-03-02T17:53:48.923Z,0.37
2023-03-02T17:56:22.050Z,0.35
2023-03-02T17:58:53.983Z,0.32
2023-03-02T18:01:21.698Z,0.32
2023-03-02T18:03:49.470Z,0.31
2023-03-02T18:06:20.421Z,0.29
2023-03-02T18:08:48.743Z,0.30
2023-03-02T18:11:20.282Z,0.28
2023-03-02T18:13:48.940Z,0.23
2023-03-02T18:16:16.792Z,0.23
2023-03-02T18:18:44.453Z,0.23
2023-03-02T18:21:12.098Z,0.23
2023-03-02T18:23:41.945Z,0.22
2023-03-02T18:26:10.004Z,0.20
2023-03-02T18:28:39.493Z,0.17
2023-03-02T18:31:07.849Z,0.16
2023-03-02T18:33:42.227Z,0.14
2023-03-02T18:36:10.709Z,0.12
2023-03-02T18:38:38.851Z,0.12
2023-03-02T18:41:08.616Z,0.09
2023-03-02T18:43:43.225Z,0.09
2023-03-02T18:46:22.208Z,0.07
2023-03-02T18:48:50.960Z,0.07
2023-03-02T18:51:19.061Z,0.07
2023-03-02T18:53:47.356Z,0.05
2023-03-02T18:56:15.508Z,0.03
2023-03-02T18:58:44.936Z,0.03
2023-03-02T19:01:13.149Z,-0.02
2023-03-02T19:03:41.852Z,-0.01
2023-03-02T19:06:10.066Z,-0.03
2023-03-02T19:08:38.104Z,-0.04
2023-03-02T19:11:08.644Z,-0.07
2023-03-02T19:13:36.450Z,-0.05
2023-03-02T19:16:06.289Z,-0.07
2023-03-02T19:18:34.394Z,-0.07
2023-03-02T19:21:04.300Z,-0.07
2023-03-02T19:23:31.948Z,-0.07
2023-03-02T19:26:00.493Z,-0.06
2023-03-02T19:28:28.515Z,-0.07
2023-03-02T19:30:56.129Z,-0.06
2023-03-02T19:33:27.061Z,-0.05
2023-03-02T19:35:54.927Z,-0.04
2023-03-02T19:38:23.942Z,-0.06
2023-03-02T19:40:51.683Z,-0.05
2023-03-02T19:43:20.350Z,-0.06
2023-03-02T19:45:48.198Z,-0.07
2023-03-02T19:48:15.891Z,-0.07
2023-03-02T19:50:45.488Z,-0.07
2023-03-02T19:53:13.732Z,-0.08
2023-03-02T19:55:42.673Z,-0.09
2023-03-02T19:58:16.675Z,-0.11
2023-03-02T20:00:45.352Z,-0.13
2023-03-02T20:03:13.154Z,-0.15
2023-03-02T20:05:41.170Z,-0.17
2023-03-02T20:08:10.316Z,-0.17
2023-03-02T20:10:40.702Z,-0.17
2023-03-02T20:13:08.622Z,-0.17
2023-03-02T20:15:39.799Z,-0.20
2023-03-02T20:18:08.706Z,-0.19
2023-03-02T20:20:36.710Z,-0.21
2023-03-02T20:23:04.676Z,-0.22
2023-03-02T20:25:34.785Z,-0.23
2023-03-02T20:28:05.481Z,-0.24
2023-03-02T20:30:37.339Z,-0.24
2023-03-02T20:33:07.852Z,-0.26
2023-03-02T20:35:39.894Z,-0.28
2023-03-02T20:38:10.419Z,-0.29
2023-03-02T20:40:39.447Z,-0.30
2023-03-02T20:43:07.263Z,-0.33
2023-03-02T20:45:35.761Z,-0.36
2023-03-02T20:48:04.301Z,-0.35
2023-03-02T20:50:35.004Z,-0.35
2023-03-02T20:53:03.058Z,-0.35
2023-03-02T20:55:31.203Z,-0.35
2023-03-02T20:58:01.079Z,-0.35
2023-03-02T21:00:30.883Z,-0.34
2023-03-02T21:02:59.115Z,-0.33
2023-03-02T21:05:27.998Z,-0.33
2023-03-02T21:07:56.878Z,-0.33
2023-03-02T21:10:28.134Z,-0.32
2023-03-02T21:12:56.132Z,-0.32
2023-03-02T21:15:27.144Z,-0.32
2023-03-02T21:17:56.032Z,-0.31
2023-03-02T21:20:25.909Z,-0.31
2023-03-02T21:22:53.578Z,-0.32
2023-03-02T21:25:21.475Z,-0.31
2023-03-02T21:27:49.223Z,-0.30
2023-03-02T21:30:19.747Z,-0.30
2023-03-02T21:32:49.550Z,-0.29
2023-03-02T21:35:19.904Z,-0.30
2023-03-02T21:37:49.321Z,-0.28
2023-03-02T21:40:19.915Z,-0.28
2023-03-02T21:42:47.790Z,-0.33
2023-03-02T21:45:15.489Z,-0.36
2023-03-02T21:47:46.346Z,-0.38
2023-03-02T21:50:17.937Z,-0.40
2023-03-02T21:52:45.819Z,-0.41
2023-03-02T21:55:18.932Z,-0.44
2023-03-02T21:57:49.725Z,-0.47
2023-03-02T22:00:22.834Z,-0.47
2023-03-02T22:02:54.395Z,-0.49
2023-03-02T22:05:28.053Z,-0.51
2023-03-02T22:07:56.080Z,-0.51
2023-03-02T22:10:27.777Z,-0.52
2023-03-02T22:12:58.459Z,-0.54
2023-03-02T22:15:27.936Z,-0.58
2023-03-02T22:17:58.028Z,-0.61
2023-03-02T22:20:27.413Z,-0.64
2023-03-02T22:22:55.623Z,-0.64
2023-03-02T22:25:24.617Z,-0.66
2023-03-02T22:27:52.598Z,-0.66
2023-03-02T22:30:22.709Z,-0.64
2023-03-02T22:32:51.020Z,-0.66
2023-03-02T22:35:25.462Z,-0.69
2023-03-02T22:38:03.162Z,-0.71
2023-03-02T22:40:33.802Z,-0.72
2023-03-02T22:43:14.890Z,-0.74
2023-03-02T22:45:42.924Z,-0.78
2023-03-02T22:48:16.594Z,-0.82
2023-03-02T22:50:45.654Z,-0.83
2023-03-02T22:53:39.146Z,-0.85
2023-03-02T22:56:26.888Z,-0.86
2023-03-02T22:58:55.146Z,-0.87
2023-03-02T23:01:24.854Z,-0.86
2023-03-02T23:03:54.686Z,-0.90
2023-03-02T23:06:28.604Z,-0.91
2023-03-02T23:08:59.423Z,-0.95
2023-03-02T23:11:27.804Z,-0.95
2023-03-02T23:13:55.870Z,-0.96
2023-03-02T23:16:25.197Z,-0.98
2023-03-02T23:18:54.945Z,-1.00
2023-03-02T23:21:28.258Z,-1.02
2023-03-02T23:23:57.557Z,-1.04
2023-03-02T23:26:25.192Z,-1.06
2023-03-02T23:28:52.851Z,-1.07
2023-03-02T23:31:21.198Z,-1.06
2023-03-02T23:33:49.433Z,-1.05
2023-03-02T23:36:17.136Z,-1.08
2023-03-02T23:38:44.841Z,-1.10
2023-03-02T23:41:13.759Z,-1.10
2023-03-02T23:43:41.666Z,-1.13
2023-03-02T23:46:13.883Z,-1.13
2023-03-02T23:48:42.000Z,-1.13
2023-03-02T23:51:09.951Z,-1.11
2023-03-02T23:53:37.646Z,-1.09
2023-03-02T23:56:05.851Z,-1.08
2023-03-02T23:58:34.861Z,-1.05
